Time;durP1;ratioP1;P1;durP2;ratioP2;P2;SDS_P1;SDS_P2;PMS_P1;PMS_P2;Temp;Humidity;BMP_temperature;BMP_pressure;BME280_temperature;BME280_humidity;BME280_pressure;Samples;Min_cycle;Max_cycle;Signal;HPM_P1;HPM_P2
2023/06/22 00:02:24;;;;;;;12.48;4.25;;;12.50;99.90;;;;;;5075191;28;20283;-87
2023/06/22 00:04:55;;;;;;;10.77;3.58;;;12.50;99.90;;;;;;5075992;28;20184;-88
2023/06/22 00:07:27;;;;;;;10.00;3.92;;;12.70;99.90;;;;;;5074174;28;20227;-88
2023/06/22 00:10:02;;;;;;;12.27;4.18;;;12.80;99.90;;;;;;5070979;28;20203;-87
2023/06/22 00:12:33;;;;;;;9.70;4.25;;;12.80;99.90;;;;;;5073154;28;20219;-87
2023/06/22 00:15:04;;;;;;;6.85;3.83;;;12.80;99.90;;;;;;5071648;28;20202;-86
2023/06/22 00:17:38;;;;;;;12.02;4.50;;;12.90;99.90;;;;;;5071801;28;20205;-85
2023/06/22 00:20:11;;;;;;;11.23;3.55;;;12.80;99.90;;;;;;5070187;28;20200;-86
2023/06/22 00:22:42;;;;;;;7.63;3.53;;;12.90;99.90;;;;;;5082992;28;20667;-85
2023/06/22 00:25:17;;;;;;;6.72;3.67;;;13.00;99.90;;;;;;5072873;28;20279;-87
2023/06/22 00:27:48;;;;;;;11.75;3.30;;;13.10;99.90;;;;;;5071436;28;20230;-88
2023/06/22 00:30:22;;;;;;;5.32;3.00;;;13.30;99.90;;;;;;5073353;28;20199;-87
2023/06/22 00:32:54;;;;;;;9.35;3.08;;;13.40;99.90;;;;;;5083465;28;20679;-86
2023/06/22 00:35:28;;;;;;;6.95;2.70;;;13.50;99.90;;;;;;5087519;28;20199;-87
2023/06/22 00:38:01;;;;;;;6.70;3.00;;;13.60;99.90;;;;;;5078518;28;20253;-88
2023/06/22 00:40:35;;;;;;;6.28;2.60;;;13.60;99.90;;;;;;5072325;28;20683;-87
2023/06/22 00:43:08;;;;;;;6.60;2.90;;;13.80;99.90;;;;;;5059159;28;20191;-89
2023/06/22 00:45:40;;;;;;;4.65;2.90;;;13.90;99.90;;;;;;5071991;28;20651;-88
2023/06/22 00:48:12;;;;;;;5.85;2.75;;;14.00;99.90;;;;;;5071423;28;20216;-88
2023/06/22 00:50:44;;;;;;;6.88;2.80;;;14.10;99.90;;;;;;5072082;28;20204;-87
2023/06/22 00:53:17;;;;;;;5.07;2.08;;;14.30;99.90;;;;;;5071171;28;20203;-88
2023/06/22 00:55:54;;;;;;;6.50;2.25;;;14.40;99.90;;;;;;5071436;28;20221;-88
2023/06/22 00:58:26;;;;;;;5.60;2.33;;;14.50;99.90;;;;;;5071208;28;20625;-89
2023/06/22 01:00:57;;;;;;;7.95;2.30;;;14.60;99.90;;;;;;5051386;28;20196;-88
2023/06/22 01:03:29;;;;;;;5.53;2.65;;;14.60;99.90;;;;;;5051587;28;20204;-87
2023/06/22 01:06:11;;;;;;;4.38;2.40;;;14.70;99.90;;;;;;5062284;28;20227;-88
2023/06/22 01:08:49;;;;;;;6.47;2.90;;;14.70;99.90;;;;;;5071397;28;20223;-88
2023/06/22 01:11:28;;;;;;;6.47;2.58;;;14.80;99.90;;;;;;5071010;28;20210;-87
2023/06/22 01:14:06;;;;;;;7.55;3.20;;;15.00;99.90;;;;;;5067540;28;20207;-87
2023/06/22 01:16:42;;;;;;;11.60;3.13;;;15.10;99.90;;;;;;5070433;28;20211;-87
2023/06/22 01:19:43;;;;;;;6.22;3.05;;;15.10;99.90;;;;;;5053219;28;20199;-87
2023/06/22 01:22:18;;;;;;;6.15;3.00;;;15.10;99.90;;;;;;5070694;28;20577;-87
2023/06/22 01:25:04;;;;;;;9.45;3.40;;;15.00;99.90;;;;;;5071064;28;20195;-88
2023/06/22 01:28:00;;;;;;;8.82;3.10;;;15.10;99.90;;;;;;5070965;28;20289;-87
2023/06/22 01:30:37;;;;;;;7.93;3.00;;;15.20;99.90;;;;;;5070157;28;20238;-87
2023/06/22 01:33:09;;;;;;;6.07;2.70;;;15.20;99.90;;;;;;5071332;28;20200;-88
2023/06/22 01:35:44;;;;;;;4.15;2.65;;;15.30;99.90;;;;;;5067108;28;20192;-87
2023/06/22 01:38:16;;;;;;;6.32;2.55;;;15.50;99.90;;;;;;5073954;28;20203;-88
2023/06/22 01:40:47;;;;;;;3.80;2.03;;;15.60;99.90;;;;;;5073898;28;20192;-88
2023/06/22 01:43:19;;;;;;;5.93;1.40;;;15.60;99.90;;;;;;5073686;28;20200;-87
2023/06/22 01:45:53;;;;;;;2.67;1.50;;;15.60;99.90;;;;;;5073725;28;20195;-87
2023/06/22 01:48:25;;;;;;;3.28;1.38;;;15.60;99.90;;;;;;5074277;28;20233;-88
2023/06/22 01:50:57;;;;;;;2.15;1.80;;;15.60;99.90;;;;;;5058118;28;20212;-88
2023/06/22 01:53:29;;;;;;;2.33;1.60;;;15.60;99.90;;;;;;5075053;28;20195;-88
2023/06/22 01:56:00;;;;;;;2.35;1.33;;;15.50;99.90;;;;;;5074840;28;20291;-87
2023/06/22 01:58:34;;;;;;;4.47;1.52;;;15.50;99.90;;;;;;5074553;28;20203;-87
2023/06/22 02:01:15;;;;;;;2.05;1.42;;;15.40;99.90;;;;;;5072143;28;20218;-86
2023/06/22 02:03:49;;;;;;;2.75;2.00;;;15.50;99.90;;;;;;5053778;28;20683;-87
2023/06/22 02:06:24;;;;;;;4.53;2.10;;;15.50;99.90;;;;;;5054067;28;20196;-87
2023/06/22 02:09:00;;;;;;;4.55;2.15;;;15.60;99.90;;;;;;5053429;28;20223;-87
2023/06/22 02:11:33;;;;;;;5.95;1.60;;;15.60;99.90;;;;;;5053605;28;20203;-87
2023/06/22 02:14:06;;;;;;;4.82;1.50;;;15.60;99.90;;;;;;5053684;28;20687;-87
2023/06/22 02:16:40;;;;;;;1.95;1.20;;;15.50;99.90;;;;;;5064553;28;20245;-87
2023/06/22 02:19:12;;;;;;;1.88;1.10;;;15.60;99.90;;;;;;5066647;28;20667;-89
2023/06/22 02:21:44;;;;;;;1.95;1.45;;;15.60;99.90;;;;;;5074679;28;20207;-89
2023/06/22 02:24:15;;;;;;;2.45;1.52;;;15.60;99.90;;;;;;5070554;28;20223;-88
2023/06/22 02:26:47;;;;;;;3.92;1.27;;;15.70;99.90;;;;;;5063839;28;20205;-89
2023/06/22 02:29:18;;;;;;;2.50;1.48;;;15.70;99.90;;;;;;5074383;28;20231;-89
2023/06/22 02:31:51;;;;;;;2.28;1.50;;;15.70;99.90;;;;;;5067147;28;20276;-86
2023/06/22 02:34:25;;;;;;;4.60;2.03;;;15.70;99.90;;;;;;5061285;28;20203;-87
2023/06/22 02:36:57;;;;;;;7.57;4.25;;;15.60;99.90;;;;;;5068332;28;20681;-88
2023/06/22 02:39:28;;;;;;;10.80;5.18;;;15.50;99.90;;;;;;5073529;28;20199;-88
2023/06/22 02:41:59;;;;;;;7.38;3.50;;;15.60;99.90;;;;;;5072873;28;20200;-87
2023/06/22 02:44:30;;;;;;;4.65;2.67;;;15.60;99.90;;;;;;5069991;28;20210;-85
2023/06/22 02:47:04;;;;;;;6.53;3.05;;;15.60;99.90;;;;;;5072612;28;20613;-88
2023/06/22 02:49:35;;;;;;;4.90;2.03;;;15.60;99.90;;;;;;5071810;28;20224;-87
2023/06/22 02:52:08;;;;;;;4.95;2.22;;;15.60;99.90;;;;;;5077030;28;20204;-87
2023/06/22 02:54:39;;;;;;;6.95;2.70;;;15.70;99.90;;;;;;5055691;28;20193;-86
2023/06/22 02:57:13;;;;;;;3.83;2.20;;;15.80;99.90;;;;;;5055314;28;20197;-87
2023/06/22 02:59:44;;;;;;;4.32;1.90;;;15.90;99.90;;;;;;5070452;28;20283;-87
2023/06/22 03:02:17;;;;;;;2.47;2.03;;;16.00;99.90;;;;;;5072660;28;20199;-86
2023/06/22 03:04:49;;;;;;;3.10;1.67;;;15.90;99.90;;;;;;5072756;28;20651;-88
2023/06/22 03:07:20;;;;;;;1.80;1.50;;;16.00;99.90;;;;;;5071873;28;20655;-87
2023/06/22 03:09:51;;;;;;;5.90;1.63;;;15.90;99.90;;;;;;5073186;28;20200;-86
2023/06/22 03:12:22;;;;;;;2.45;1.50;;;15.90;99.90;;;;;;5072503;28;20228;-88
2023/06/22 03:14:53;;;;;;;3.30;1.50;;;16.00;99.90;;;;;;5069607;28;20192;-85
2023/06/22 03:17:26;;;;;;;6.90;1.70;;;16.00;99.90;;;;;;5052289;28;20193;-87
2023/06/22 03:19:57;;;;;;;3.58;1.63;;;15.90;99.90;;;;;;5064658;28;20663;-86
2023/06/22 03:22:29;;;;;;;2.58;1.40;;;15.90;99.90;;;;;;5072503;28;20200;-87
2023/06/22 03:25:00;;;;;;;3.08;1.65;;;15.90;99.90;;;;;;5072925;28;20200;-88
2023/06/22 03:27:31;;;;;;;3.13;1.52;;;15.80;99.90;;;;;;5082502;28;20237;-86
2023/06/22 03:30:02;;;;;;;2.65;1.50;;;15.80;99.90;;;;;;5088832;28;20214;-88
2023/06/22 03:32:44;;;;;;;3.85;1.58;;;15.90;99.90;;;;;;5074270;28;20203;-87
2023/06/22 03:35:15;;;;;;;2.35;1.60;;;15.90;99.90;;;;;;5079764;28;20295;-88
2023/06/22 03:37:49;;;;;;;4.78;1.63;;;15.80;99.90;;;;;;5077653;28;20719;-89
2023/06/22 03:40:21;;;;;;;2.65;1.48;;;15.70;99.90;;;;;;5074648;28;20694;-88
2023/06/22 03:42:53;;;;;;;4.75;1.90;;;15.70;99.90;;;;;;5071498;28;20572;-87
2023/06/22 03:45:26;;;;;;;3.15;1.60;;;15.80;99.90;;;;;;5054681;28;20212;-87
2023/06/22 03:48:00;;;;;;;4.15;3.08;;;15.70;99.90;;;;;;5071864;28;20220;-88
2023/06/22 03:50:32;;;;;;;6.75;2.60;;;15.70;99.90;;;;;;5071861;28;20201;-88
2023/06/22 03:53:03;;;;;;;4.50;1.80;;;15.70;99.90;;;;;;5072011;28;20200;-88
2023/06/22 03:55:34;;;;;;;3.47;1.80;;;15.60;99.90;;;;;;5072130;28;20203;-89
2023/06/22 03:58:05;;;;;;;6.10;1.85;;;15.60;99.90;;;;;;5070365;28;20233;-89
2023/06/22 04:00:38;;;;;;;3.70;1.80;;;15.60;99.90;;;;;;5057622;28;20214;-90
2023/06/22 04:03:12;;;;;;;2.83;1.42;;;15.60;99.90;;;;;;5070317;28;20635;-89
2023/06/22 04:05:44;;;;;;;4.07;1.83;;;15.60;99.90;;;;;;5069958;28;20195;-90
2023/06/22 04:08:18;;;;;;;4.22;1.88;;;15.60;99.90;;;;;;5071114;28;20710;-89
2023/06/22 04:10:49;;;;;;;3.15;1.92;;;15.70;99.90;;;;;;5070474;28;20195;-87
2023/06/22 04:13:21;;;;;;;2.75;1.70;;;15.60;99.90;;;;;;5051367;28;20228;-87
2023/06/22 04:15:53;;;;;;;3.78;1.98;;;15.70;99.90;;;;;;5051639;28;20652;-87
2023/06/22 04:18:26;;;;;;;4.22;1.70;;;15.70;99.90;;;;;;5063617;28;20666;-85
2023/06/22 04:20:57;;;;;;;3.08;1.88;;;15.70;99.90;;;;;;5071189;28;20539;-85
2023/06/22 04:23:29;;;;;;;5.55;1.92;;;15.70;99.90;;;;;;5071166;28;20222;-85
2023/06/22 04:26:01;;;;;;;6.22;1.50;;;15.60;99.90;;;;;;5070095;28;20669;-86
2023/06/22 04:28:34;;;;;;;4.78;1.40;;;15.50;99.90;;;;;;5070914;28;20216;-86
2023/06/22 04:31:06;;;;;;;2.53;1.40;;;15.60;99.90;;;;;;5071498;28;20196;-85
2023/06/22 04:33:40;;;;;;;3.15;1.50;;;15.60;99.90;;;;;;5070861;28;20651;-84
2023/06/22 04:36:13;;;;;;;6.07;1.55;;;15.60;99.90;;;;;;5067283;28;20242;-85
2023/06/22 04:38:44;;;;;;;4.00;1.70;;;15.60;99.90;;;;;;5071059;28;20192;-86
2023/06/22 04:41:24;;;;;;;1.92;1.40;;;15.60;99.90;;;;;;5071726;28;20192;-87
2023/06/22 04:43:59;;;;;;;3.13;1.35;;;15.60;99.90;;;;;;5083217;28;20256;-86
2023/06/22 04:46:30;;;;;;;4.05;1.85;;;15.60;99.90;;;;;;5071091;28;20206;-86
2023/06/22 04:49:06;;;;;;;5.60;1.45;;;15.70;99.90;;;;;;5070921;28;20253;-86
2023/06/22 04:51:37;;;;;;;3.83;1.40;;;15.70;99.90;;;;;;5070512;28;20215;-86
2023/06/22 04:54:09;;;;;;;4.80;1.45;;;15.70;99.90;;;;;;5070481;28;20192;-87
2023/06/22 04:56:41;;;;;;;7.95;1.70;;;15.70;99.90;;;;;;5057313;28;20204;-86
2023/06/22 04:59:12;;;;;;;3.15;1.48;;;15.80;99.90;;;;;;5051750;28;20192;-86
2023/06/22 05:01:44;;;;;;;5.50;1.48;;;15.80;99.90;;;;;;5050871;28;20283;-86
2023/06/22 05:04:19;;;;;;;3.65;1.65;;;15.80;99.90;;;;;;5057967;28;20203;-86
2023/06/22 05:06:50;;;;;;;2.75;1.38;;;15.80;99.90;;;;;;5070348;28;20203;-86
2023/06/22 05:09:22;;;;;;;5.35;1.40;;;15.80;99.90;;;;;;5070471;28;20232;-86
2023/06/22 05:11:53;;;;;;;4.80;1.63;;;15.90;99.90;;;;;;5073513;28;20228;-87
2023/06/22 05:14:24;;;;;;;4.53;1.77;;;15.80;99.90;;;;;;5074767;28;20206;-87
2023/06/22 05:16:58;;;;;;;5.50;1.63;;;15.80;99.90;;;;;;5074410;28;20279;-87
2023/06/22 05:19:33;;;;;;;4.20;1.50;;;15.70;99.90;;;;;;5074626;28;20741;-88
2023/06/22 05:22:04;;;;;;;2.90;1.50;;;15.60;99.90;;;;;;5075340;28;20229;-88
2023/06/22 05:24:35;;;;;;;3.65;1.50;;;15.60;99.90;;;;;;5074962;28;20196;-87
2023/06/22 05:27:06;;;;;;;4.30;1.80;;;15.60;99.90;;;;;;5074003;28;20211;-87
2023/06/22 05:29:37;;;;;;;3.72;1.50;;;15.60;99.90;;;;;;5069588;28;20228;-87
2023/06/22 05:32:09;;;;;;;4.78;1.70;;;15.60;99.90;;;;;;5054418;28;20203;-87
2023/06/22 05:34:43;;;;;;;5.38;1.42;;;15.60;99.90;;;;;;5054338;28;20196;-85
2023/06/22 05:37:14;;;;;;;5.15;1.30;;;15.60;99.90;;;;;;5054511;28;20196;-86
2023/06/22 05:39:45;;;;;;;5.13;1.60;;;15.50;99.90;;;;;;5054394;28;20648;-87
2023/06/22 05:42:18;;;;;;;4.13;1.20;;;15.50;99.90;;;;;;5060630;28;20279;-85
2023/06/22 05:44:53;;;;;;;3.63;1.50;;;15.50;99.90;;;;;;5070478;28;20208;-88
2023/06/22 05:47:24;;;;;;;2.08;1.00;;;15.60;99.90;;;;;;5066334;28;20279;-88
2023/06/22 05:49:58;;;;;;;4.72;1.38;;;15.60;99.90;;;;;;5074551;28;20601;-88
2023/06/22 05:52:29;;;;;;;3.15;1.48;;;15.50;99.90;;;;;;5073659;28;20242;-89
2023/06/22 05:55:00;;;;;;;2.65;1.50;;;15.50;99.90;;;;;;5074215;28;20203;-88
2023/06/22 05:57:31;;;;;;;3.30;1.42;;;15.50;99.90;;;;;;5074396;28;20200;-87
2023/06/22 06:00:02;;;;;;;1.92;1.00;;;15.50;99.90;;;;;;5074989;28;20623;-87
2023/06/22 06:02:33;;;;;;;5.13;1.70;;;15.40;99.90;;;;;;5072467;28;20254;-87
2023/06/22 06:05:07;;;;;;;5.00;1.95;;;15.40;99.90;;;;;;5074206;28;20202;-87
2023/06/22 06:07:38;;;;;;;4.07;1.95;;;15.40;99.90;;;;;;5074180;28;20626;-87
2023/06/22 06:10:10;;;;;;;5.20;1.73;;;15.30;99.90;;;;;;5073364;28;20251;-87
2023/06/22 06:12:41;;;;;;;5.22;1.90;;;15.30;99.90;;;;;;5054086;28;20228;-87
2023/06/22 06:15:13;;;;;;;5.85;2.15;;;15.30;99.90;;;;;;5053982;28;20219;-88
2023/06/22 06:17:52;;;;;;;5.35;2.38;;;15.30;99.90;;;;;;5067634;28;20574;-87
2023/06/22 06:20:27;;;;;;;5.20;2.47;;;15.30;99.90;;;;;;5055092;28;20570;-87
2023/06/22 06:22:58;;;;;;;7.30;2.22;;;15.20;99.90;;;;;;5052657;28;20196;-88
2023/06/22 06:25:30;;;;;;;5.22;2.53;;;15.20;99.90;;;;;;5055660;28;20205;-86
2023/06/22 06:28:01;;;;;;;4.30;2.53;;;15.20;99.90;;;;;;5083887;28;20195;-87
2023/06/22 06:30:32;;;;;;;5.38;2.40;;;15.00;99.90;;;;;;5078154;28;20228;-87
2023/06/22 06:33:04;;;;;;;4.57;2.25;;;15.00;99.90;;;;;;5054186;28;20201;-87
2023/06/22 06:35:39;;;;;;;7.63;2.63;;;14.90;99.90;;;;;;5068168;28;20654;-87
2023/06/22 06:38:10;;;;;;;6.10;2.40;;;14.90;99.90;;;;;;5070463;28;20566;-87
2023/06/22 06:40:41;;;;;;;6.03;2.80;;;14.80;99.90;;;;;;5073390;28;20570;-86
2023/06/22 06:43:13;;;;;;;5.65;2.90;;;14.70;99.90;;;;;;5073399;28;20287;-87
2023/06/22 06:45:44;;;;;;;6.82;2.63;;;14.70;99.90;;;;;;5072813;28;20192;-87
2023/06/22 06:48:19;;;;;;;8.02;2.85;;;14.60;99.90;;;;;;5073845;28;20231;-86
2023/06/22 06:50:52;;;;;;;7.57;3.22;;;14.70;99.90;;;;;;5076848;28;20207;-86
2023/06/22 06:53:23;;;;;;;7.75;3.65;;;14.60;99.90;;;;;;5052527;28;20571;-87
2023/06/22 06:55:57;;;;;;;6.95;3.38;;;14.60;99.90;;;;;;5067091;28;20196;-90
2023/06/22 06:58:29;;;;;;;5.78;3.33;;;14.50;99.90;;;;;;5074330;28;20647;-91
2023/06/22 07:01:00;;;;;;;7.80;3.97;;;14.40;99.90;;;;;;5073769;28;20450;-90
2023/06/22 07:03:33;;;;;;;9.45;4.00;;;14.30;99.90;;;;;;5073039;28;20210;-88
2023/06/22 07:06:07;;;;;;;8.82;4.80;;;14.30;99.90;;;;;;5073252;28;20270;-87
2023/06/22 07:08:39;;;;;;;10.60;4.78;;;14.30;99.90;;;;;;5072144;28;20200;-88
2023/06/22 07:11:12;;;;;;;9.55;4.75;;;14.30;99.90;;;;;;5073519;28;20196;-89
2023/06/22 07:13:43;;;;;;;9.52;4.30;;;14.20;99.90;;;;;;5072670;28;20232;-88
2023/06/22 07:16:14;;;;;;;8.98;4.47;;;14.20;99.90;;;;;;5073000;28;20214;-90
2023/06/22 07:18:46;;;;;;;15.93;5.63;;;14.20;99.90;;;;;;5072765;28;20200;-89
2023/06/22 07:21:19;;;;;;;18.85;13.18;;;14.20;99.90;;;;;;5072915;28;20200;-89
2023/06/22 07:23:50;;;;;;;20.20;13.95;;;14.10;99.90;;;;;;5073250;28;20200;-89
2023/06/22 07:26:21;;;;;;;14.25;10.63;;;14.10;99.90;;;;;;5071271;28;20196;-88
2023/06/22 07:28:52;;;;;;;9.95;5.03;;;14.00;99.90;;;;;;5071769;28;20655;-88
2023/06/22 07:31:24;;;;;;;9.55;4.55;;;14.00;99.90;;;;;;5059708;28;20204;-88
2023/06/22 07:33:55;;;;;;;9.77;4.72;;;14.00;99.90;;;;;;5052275;28;20581;-88
2023/06/22 07:36:30;;;;;;;10.98;4.97;;;14.00;99.90;;;;;;5052327;28;20211;-89
2023/06/22 07:39:01;;;;;;;6.90;4.05;;;13.90;99.90;;;;;;5052847;28;20573;-88
2023/06/22 07:41:32;;;;;;;9.55;4.53;;;13.90;99.90;;;;;;5056006;28;20211;-87
2023/06/22 07:44:03;;;;;;;8.77;5.03;;;13.90;99.90;;;;;;5067476;28;20192;-90
2023/06/22 07:46:34;;;;;;;10.38;4.63;;;13.90;99.90;;;;;;5068759;28;20196;-91
2023/06/22 07:49:08;;;;;;;5.13;4.00;;;13.90;99.90;;;;;;5072008;28;20223;-92
2023/06/22 07:51:42;;;;;;;7.40;4.60;;;13.90;99.90;;;;;;5059744;28;20270;-91
2023/06/22 07:54:15;;;;;;;7.07;4.25;;;14.00;99.90;;;;;;5053632;28;20693;-92
2023/06/22 07:56:48;;;;;;;6.80;4.75;;;14.00;99.90;;;;;;5053826;28;20208;-92
2023/06/22 07:59:22;;;;;;;8.77;5.63;;;14.00;99.90;;;;;;5065245;28;20202;-93
2023/06/22 08:01:56;;;;;;;11.98;6.30;;;13.90;99.90;;;;;;5075328;28;20569;-93
2023/06/22 08:04:27;;;;;;;10.23;6.45;;;13.90;99.90;;;;;;5073261;28;20199;-92
2023/06/22 08:07:03;;;;;;;8.63;6.32;;;13.90;99.90;;;;;;5072965;28;20204;-93
2023/06/22 08:09:37;;;;;;;10.73;5.65;;;14.00;99.90;;;;;;5056213;28;20581;-93
2023/06/22 08:12:09;;;;;;;7.97;5.18;;;14.00;99.90;;;;;;5062468;28;20253;-93
2023/06/22 08:14:51;;;;;;;9.68;5.20;;;14.00;99.90;;;;;;5072585;28;20218;-94
2023/06/22 08:17:23;;;;;;;8.93;5.05;;;14.00;99.90;;;;;;5074000;28;20680;-93
2023/06/22 08:19:54;;;;;;;8.07;5.63;;;13.90;99.90;;;;;;5076160;28;20594;-91
2023/06/22 08:22:28;;;;;;;10.82;5.50;;;13.90;99.90;;;;;;5074792;28;20192;-93
2023/06/22 08:24:59;;;;;;;8.80;5.88;;;13.90;99.90;;;;;;5074292;28;20208;-93
2023/06/22 08:27:31;;;;;;;9.48;5.47;;;13.90;99.90;;;;;;5078607;28;20199;-94
2023/06/22 08:30:02;;;;;;;21.20;14.13;;;13.90;99.90;;;;;;5094999;28;20237;-93
2023/06/22 08:32:37;;;;;;;18.05;13.23;;;13.90;99.90;;;;;;5091852;28;20204;-93
2023/06/22 08:35:10;;;;;;;11.82;7.07;;;13.90;99.90;;;;;;5054708;28;20639;-92
2023/06/22 08:37:51;;;;;;;10.25;5.70;;;13.90;99.90;;;;;;5057728;28;20204;-92
2023/06/22 08:40:27;;;;;;;13.38;10.43;;;13.90;99.90;;;;;;5053874;28;20204;-93
2023/06/22 08:43:00;;;;;;;13.50;6.72;;;13.90;99.90;;;;;;5054735;28;20231;-93
2023/06/22 08:45:31;;;;;;;14.75;5.93;;;13.90;99.90;;;;;;5061785;28;20198;-92
2023/06/22 08:48:02;;;;;;;8.52;5.85;;;13.80;99.90;;;;;;5070008;28;20196;-93
2023/06/22 08:50:34;;;;;;;9.07;5.57;;;13.80;99.90;;;;;;5077455;28;20234;-93
2023/06/22 08:53:13;;;;;;;8.55;5.22;;;13.80;99.90;;;;;;5077148;28;20200;-92
2023/06/22 08:55:45;;;;;;;9.65;4.70;;;13.70;99.90;;;;;;5085713;28;20202;-92
2023/06/22 08:58:18;;;;;;;8.70;4.90;;;13.70;99.90;;;;;;5077248;28;20215;-92
2023/06/22 09:00:51;;;;;;;10.70;6.70;;;13.70;99.90;;;;;;5066662;28;20204;-93
2023/06/22 09:03:26;;;;;;;9.55;5.40;;;13.70;99.90;;;;;;5058194;28;20264;-92
2023/06/22 09:05:57;;;;;;;11.10;4.55;;;13.60;99.90;;;;;;5077059;28;20192;-92
2023/06/22 09:08:34;;;;;;;6.53;4.50;;;13.60;99.90;;;;;;5054058;28;20197;-92
2023/06/22 09:11:06;;;;;;;8.10;4.60;;;13.60;99.90;;;;;;5062938;28;20264;-89
2023/06/22 09:13:37;;;;;;;11.15;5.57;;;13.60;99.90;;;;;;5074711;28;20231;-91
2023/06/22 09:16:09;;;;;;;8.45;5.38;;;13.50;99.90;;;;;;5078487;28;20282;-90
2023/06/22 09:18:41;;;;;;;9.75;6.03;;;13.50;99.90;;;;;;5052980;28;20224;-91
2023/06/22 09:21:14;;;;;;;9.85;5.72;;;13.50;99.90;;;;;;5036077;28;20214;-92
2023/06/22 09:23:51;;;;;;;9.98;6.50;;;13.60;99.90;;;;;;5046716;28;20207;-92
2023/06/22 09:26:23;;;;;;;11.88;6.35;;;13.60;99.90;;;;;;5075258;28;20203;-92
2023/06/22 09:28:54;;;;;;;9.55;5.90;;;13.70;99.90;;;;;;5073361;28;20258;-93
2023/06/22 09:31:27;;;;;;;9.52;6.13;;;13.60;99.90;;;;;;5071926;28;20622;-91
2023/06/22 09:33:58;;;;;;;10.95;5.40;;;13.60;99.90;;;;;;5073960;28;20191;-91
2023/06/22 09:36:29;;;;;;;9.93;6.03;;;13.70;99.90;;;;;;5071389;28;20216;-92
2023/06/22 09:39:06;;;;;;;9.23;5.90;;;13.70;99.90;;;;;;5071219;28;20218;-92
2023/06/22 09:41:38;;;;;;;10.57;6.70;;;13.60;99.90;;;;;;5073230;28;20229;-93
2023/06/22 09:44:11;;;;;;;8.93;5.70;;;13.60;99.90;;;;;;5040135;28;20681;-92
2023/06/22 09:46:43;;;;;;;10.80;5.72;;;13.60;99.90;;;;;;5072869;28;20200;-92
2023/06/22 09:49:14;;;;;;;9.48;5.47;;;13.60;99.90;;;;;;5072008;28;20220;-93
2023/06/22 09:51:50;;;;;;;11.02;7.15;;;13.60;99.90;;;;;;5073222;28;20219;-91
2023/06/22 09:54:24;;;;;;;13.30;7.05;;;13.60;99.90;;;;;;5054895;28;20677;-91
2023/06/22 09:56:55;;;;;;;8.80;6.07;;;13.60;99.90;;;;;;5072234;28;20207;-89
2023/06/22 09:59:26;;;;;;;9.65;6.22;;;13.60;99.90;;;;;;5074802;28;20199;-89
2023/06/22 10:01:58;;;;;;;11.27;6.30;;;13.60;99.90;;;;;;5075422;28;20196;-90
2023/06/22 10:04:29;;;;;;;11.45;6.88;;;13.60;99.90;;;;;;5072930;28;20200;-90
2023/06/22 10:07:02;;;;;;;8.90;6.50;;;13.50;99.90;;;;;;5074454;28;20200;-89
2023/06/22 10:09:37;;;;;;;13.48;7.07;;;13.50;99.90;;;;;;5074530;28;20200;-89
2023/06/22 10:12:09;;;;;;;11.57;7.32;;;13.50;99.90;;;;;;5074899;28;20231;-90
2023/06/22 10:14:41;;;;;;;9.95;6.45;;;13.50;99.90;;;;;;5075114;28;20211;-90
2023/06/22 10:17:13;;;;;;;9.38;5.40;;;13.50;99.90;;;;;;5058526;28;20200;-90
2023/06/22 10:19:45;;;;;;;11.18;5.50;;;13.40;99.90;;;;;;5075040;28;20558;-91
2023/06/22 10:22:17;;;;;;;10.23;5.97;;;13.50;99.90;;;;;;5074748;28;20202;-91
2023/06/22 10:24:53;;;;;;;9.52;6.25;;;13.50;99.90;;;;;;5058077;28;20257;-90
2023/06/22 10:27:25;;;;;;;8.95;6.15;;;13.50;99.90;;;;;;5075274;28;20201;-90
2023/06/22 10:29:57;;;;;;;8.98;6.15;;;13.50;99.90;;;;;;5058079;28;20224;-90
2023/06/22 10:32:30;;;;;;;11.40;6.38;;;13.50;99.90;;;;;;5066156;28;20282;-90
2023/06/22 10:35:02;;;;;;;8.60;6.07;;;13.50;99.90;;;;;;5074554;28;20774;-89
2023/06/22 10:37:33;;;;;;;11.35;6.07;;;13.50;99.90;;;;;;5073718;28;20188;-90
2023/06/22 10:40:07;;;;;;;12.13;5.55;;;13.50;99.90;;;;;;5070631;28;20202;-88
2023/06/22 10:42:39;;;;;;;9.27;6.03;;;13.60;99.90;;;;;;5073531;28;20324;-85
2023/06/22 10:45:11;;;;;;;11.35;6.88;;;13.50;99.90;;;;;;5073135;28;20203;-84
2023/06/22 10:47:42;;;;;;;13.93;7.05;;;13.50;99.90;;;;;;5070258;28;20196;-84
2023/06/22 10:50:14;;;;;;;12.57;7.47;;;13.50;99.90;;;;;;5070065;28;20232;-85
2023/06/22 10:52:45;;;;;;;13.43;8.10;;;13.50;99.90;;;;;;5072077;28;20196;-84
2023/06/22 10:55:18;;;;;;;13.43;7.82;;;13.40;99.90;;;;;;5053749;28;20200;-84
2023/06/22 10:57:49;;;;;;;11.27;7.50;;;13.30;99.90;;;;;;5063728;28;20662;-84
2023/06/22 11:00:21;;;;;;;16.10;7.20;;;13.40;99.90;;;;;;5072118;28;20203;-83
2023/06/22 11:02:52;;;;;;;11.82;7.97;;;13.30;99.90;;;;;;5074500;28;20223;-84
2023/06/22 11:05:23;;;;;;;10.60;7.53;;;13.20;99.90;;;;;;5081806;28;21259;-84
2023/06/22 11:07:54;;;;;;;10.55;7.30;;;13.30;99.90;;;;;;5074200;28;20207;-85
2023/06/22 11:10:28;;;;;;;13.57;8.13;;;13.30;99.90;;;;;;5073084;28;20224;-84
2023/06/22 11:12:59;;;;;;;14.98;8.23;;;13.30;99.90;;;;;;5072390;28;20224;-85
2023/06/22 11:15:31;;;;;;;15.68;8.93;;;13.20;99.90;;;;;;5071970;28;20269;-87
2023/06/22 11:18:05;;;;;;;13.55;7.80;;;13.30;99.90;;;;;;5072945;28;20230;-86
2023/06/22 11:20:38;;;;;;;13.55;7.57;;;13.20;99.90;;;;;;5067169;28;20193;-83
2023/06/22 11:23:09;;;;;;;13.23;7.35;;;13.20;99.90;;;;;;5061710;28;20203;-86
2023/06/22 11:25:42;;;;;;;15.27;7.38;;;13.30;99.90;;;;;;5072548;28;20204;-86
2023/06/22 11:28:13;;;;;;;9.27;7.22;;;13.30;99.90;;;;;;5072749;28;20203;-86
2023/06/22 11:30:47;;;;;;;13.25;7.93;;;13.30;99.90;;;;;;5072025;28;20224;-87
2023/06/22 11:33:18;;;;;;;14.30;8.80;;;13.30;99.90;;;;;;5070986;28;20198;-87
2023/06/22 11:35:50;;;;;;;12.45;7.40;;;13.30;99.90;;;;;;5072136;28;20192;-87
2023/06/22 11:38:21;;;;;;;13.35;7.70;;;13.30;99.90;;;;;;5072135;28;20203;-87
2023/06/22 11:40:55;;;;;;;14.07;8.07;;;13.30;99.90;;;;;;5072379;28;20212;-87
2023/06/22 11:43:26;;;;;;;14.88;7.88;;;13.30;99.90;;;;;;5071886;28;20206;-86
2023/06/22 11:45:58;;;;;;;12.88;8.27;;;13.20;99.90;;;;;;5071844;28;20226;-85
2023/06/22 11:48:29;;;;;;;14.23;7.93;;;13.20;99.90;;;;;;5058502;28;20733;-85
2023/06/22 11:51:00;;;;;;;12.65;7.90;;;13.20;99.90;;;;;;5070895;28;20593;-85
2023/06/22 11:53:31;;;;;;;12.25;8.02;;;13.20;99.90;;;;;;5071293;28;20676;-85
2023/06/22 11:56:05;;;;;;;11.70;7.78;;;13.20;99.90;;;;;;5072451;28;20663;-85
2023/06/22 11:58:36;;;;;;;10.60;7.10;;;13.20;99.90;;;;;;5052327;28;20670;-86
2023/06/22 12:01:07;;;;;;;13.75;7.75;;;13.30;99.90;;;;;;5052484;28;20283;-86
2023/06/22 12:03:38;;;;;;;11.57;7.25;;;13.30;99.90;;;;;;5066186;28;20206;-87
2023/06/22 12:06:10;;;;;;;11.45;6.53;;;13.30;99.90;;;;;;5071262;28;20568;-86
2023/06/22 12:08:41;;;;;;;9.15;6.82;;;13.40;99.90;;;;;;5072357;28;20577;-84
2023/06/22 12:11:15;;;;;;;10.68;6.88;;;13.40;99.90;;;;;;5072138;28;20220;-88
2023/06/22 12:13:47;;;;;;;10.80;6.60;;;13.40;99.90;;;;;;5072096;28;20618;-87
2023/06/22 12:16:18;;;;;;;9.27;6.78;;;13.40;99.90;;;;;;5071624;28;20212;-86
2023/06/22 12:18:49;;;;;;;8.52;7.00;;;13.40;99.90;;;;;;5071572;28;20200;-86
2023/06/22 12:21:21;;;;;;;9.15;6.63;;;13.40;99.90;;;;;;5069957;28;20203;-86
2023/06/22 12:23:52;;;;;;;10.70;7.68;;;13.30;99.90;;;;;;5072009;28;20192;-87
2023/06/22 12:26:25;;;;;;;9.82;7.00;;;13.30;99.90;;;;;;5071760;28;20559;-88
2023/06/22 12:28:56;;;;;;;10.18;7.13;;;13.30;99.90;;;;;;5071688;28;20206;-87
2023/06/22 12:31:27;;;;;;;13.80;6.88;;;13.30;99.90;;;;;;5070140;28;20246;-86
2023/06/22 12:33:58;;;;;;;13.70;8.00;;;13.20;99.90;;;;;;5071954;28;20202;-87
2023/06/22 12:36:30;;;;;;;12.25;7.70;;;13.20;99.90;;;;;;5071547;28;20221;-86
2023/06/22 12:39:01;;;;;;;9.52;6.88;;;13.10;99.90;;;;;;5071118;28;20192;-87
2023/06/22 12:41:35;;;;;;;9.77;7.68;;;13.10;99.90;;;;;;5072562;28;20200;-87
2023/06/22 12:44:07;;;;;;;9.63;7.60;;;13.10;99.90;;;;;;5071719;28;20203;-86
2023/06/22 12:46:40;;;;;;;11.70;6.85;;;13.10;99.90;;;;;;5071808;28;20198;-87
2023/06/22 12:49:11;;;;;;;9.65;6.68;;;13.20;99.90;;;;;;5058391;28;20221;-86
2023/06/22 12:51:44;;;;;;;10.43;6.90;;;13.20;99.90;;;;;;5052651;28;20585;-89
2023/06/22 12:54:16;;;;;;;11.00;6.68;;;13.20;99.90;;;;;;5072045;28;20211;-88
2023/06/22 12:56:51;;;;;;;7.35;6.15;;;13.20;99.90;;;;;;5072662;28;20207;-88
2023/06/22 12:59:29;;;;;;;7.05;5.28;;;13.20;99.90;;;;;;5076590;28;20205;-89
2023/06/22 13:02:01;;;;;;;5.55;4.82;;;13.20;99.90;;;;;;5080708;28;20218;-88
2023/06/22 13:04:35;;;;;;;7.25;4.45;;;13.20;99.90;;;;;;5079384;28;20219;-90
2023/06/22 13:07:18;;;;;;;7.15;5.03;;;13.30;99.90;;;;;;5079974;28;20199;-91
2023/06/22 13:09:51;;;;;;;8.38;5.10;;;13.30;99.90;;;;;;5085000;28;20176;-90
2023/06/22 13:12:25;;;;;;;6.07;4.88;;;13.30;99.90;;;;;;5087243;28;20231;-86